Time,TemperatureF,DewpointF,PressureIn,WindDirection,WindDirectionDegrees,WindSpeedMPH,WindSpeedGustMPH,Humidity,HourlyPrecipIn,Conditions,Clouds,dailyrainin,SolarRadiationWatts/m^2,SoftwareType,DateUTC
2013-05-16 00:00:00,62.4,56.1,30.00,SW,216,0.0,0.0,80,0.00,,,0.00,0,Wunderground v.1.15,2013-05-16 04:00:00,
2013-05-16 00:05:00,61.9,55.7,30.00,SW,216,0.0,0.0,80,0.00,,,0.00,0,Wunderground v.1.15,2013-05-16 04:05:00,
2013-05-16 00:10:00,61.5,55.6,30.00,SW,216,0.0,0.0,81,0.00,,,0.00,0,Wunderground v.1.15,2013-05-16 04:10:00,
2013-05-16 00:15:00,61.1,55.6,30.00,SW,216,0.0,0.0,82,0.00,,,0.00,0,Wunderground v.1.15,2013-05-16 04:15:00,
2013-05-16 00:20:00,60.7,55.5,30.00,SW,216,0.0,0.0,83,0.00,,,0.00,0,Wunderground v.1.15,2013-05-16 04:20:00,
2013-05-16 00:25:00,60.5,55.3,30.00,SW,216,0.0,0.0,83,0.00,,,0.00,0,Wunderground v.1.15,2013-05-16 04:25:00,
2013-05-16 00:30:00,60.2,55.0,30.00,SW,216,0.0,0.0,83,0.00,,,0.00,0,Wunderground v.1.15,2013-05-16 04:30:00,
2013-05-16 00:35:00,60.0,55.2,30.00,SW,216,0.0,0.0,84,0.00,,,0.00,0,Wunderground v.1.15,2013-05-16 04:35:00,
2013-05-16 00:45:00,59.3,54.5,29.99,SW,216,0.0,0.0,84,0.00,,,0.00,0,Wunderground v.1.15,2013-05-16 04:45:00,
2013-05-16 00:50:00,59.0,54.5,30.00,SW,216,0.0,0.0,85,0.00,,,0.00,0,Wunderground v.1.15,2013-05-16 04:50:00,
2013-05-16 00:55:00,59.0,54.5,30.00,SW,216,0.0,0.0,85,0.00,,,0.00,0,Wunderground v.1.15,2013-05-16 04:55:00,
2013-05-16 01:00:00,58.6,54.4,30.00,SW,216,0.0,0.0,86,0.00,,,0.00,0,Wunderground v.1.15,2013-05-16 05:00:00,
2013-05-16 01:05:00,58.4,54.5,30.00,SW,216,0.0,0.0,87,0.00,,,0.00,0,Wunderground v.1.15,2013-05-16 05:05:00,
2013-05-16 01:15:00,58.2,54.3,29.99,SW,216,0.0,0.0,87,0.00,,,0.00,0,Wunderground v.1.15,2013-05-16 05:15:00,
2013-05-16 01:20:00,58.0,54.2,29.99,SW,216,0.0,0.0,87,0.00,,,0.00,0,Wunderground v.1.15,2013-05-16 05:20:00,
2013-05-16 01:25:00,57.7,53.9,29.99,SW,216,0.0,0.0,87,0.00,,,0.00,0,Wunderground v.1.15,2013-05-16 05:25:00,
2013-05-16 01:30:00,57.5,54.0,29.99,SW,216,0.0,0.0,88,0.00,,,0.00,0,Wunderground v.1.15,2013-05-16 05:30:00,
2013-05-16 01:35:00,57.1,53.3,29.99,SW,216,0.0,0.0,87,0.00,,,0.00,0,Wunderground v.1.15,2013-05-16 05:35:00,
2013-05-16 01:40:00,56.9,53.4,29.99,SW,216,0.0,0.0,88,0.00,,,0.00,0,Wunderground v.1.15,2013-05-16 05:40:00,
2013-05-16 01:45:00,56.7,53.5,29.99,SW,216,0.0,0.0,89,0.00,,,0.00,0,Wunderground v.1.15,2013-05-16 05:45:00,
2013-05-16 01:55:00,56.5,53.0,29.99,SW,216,0.0,0.0,88,0.00,,,0.00,0,Wunderground v.1.15,2013-05-16 05:55:00,
2013-05-16 02:00:00,56.3,53.1,29.99,SW,216,0.0,0.0,89,0.00,,,0.00,0,Wunderground v.1.15,2013-05-16 06:00:00,
2013-05-16 02:05:00,56.2,53.0,29.99,SW,216,0.0,0.0,89,0.00,,,0.00,0,Wunderground v.1.15,2013-05-16 06:05:00,
2013-05-16 02:15:00,55.9,52.7,29.99,SW,216,0.0,0.0,89,0.00,,,0.00,0,Wunderground v.1.15,2013-05-16 06:15:00,
2013-05-16 02:25:00,55.7,52.5,29.99,SW,216,0.0,0.0,89,0.00,,,0.00,0,Wunderground v.1.15,2013-05-16 06:25:00,
2013-05-16 02:30:00,55.6,52.7,29.99,SW,216,0.0,0.0,90,0.00,,,0.00,0,Wunderground v.1.15,2013-05-16 06:30:00,
2013-05-16 02:35:00,55.4,52.5,29.98,SW,216,0.0,0.0,90,0.00,,,0.00,0,Wunderground v.1.15,2013-05-16 06:35:00,
2013-05-16 02:40:00,55.2,52.0,29.98,SW,216,0.0,0.0,89,0.00,,,0.00,0,Wunderground v.1.15,2013-05-16 06:40:00,
2013-05-16 02:45:00,55.1,52.2,29.98,SW,216,0.0,0.0,90,0.00,,,0.00,0,Wunderground v.1.15,2013-05-16 06:45:00,
2013-05-16 02:50:00,55.0,52.1,29.98,SW,216,0.0,0.0,90,0.00,,,0.00,0,Wunderground v.1.15,2013-05-16 06:50:00,
2013-05-16 03:00:00,54.8,52.2,29.98,SW,216,0.0,0.0,91,0.00,,,0.00,0,Wunderground v.1.15,2013-05-16 07:00:00,
2013-05-16 03:05:00,54.6,51.7,29.98,SW,216,0.0,0.0,90,0.00,,,0.00,0,Wunderground v.1.15,2013-05-16 07:05:00,
2013-05-16 03:15:00,54.6,52.0,29.98,SW,216,0.0,0.0,91,0.00,,,0.00,0,Wunderground v.1.15,2013-05-16 07:15:00,
2013-05-16 03:20:00,54.7,52.1,29.97,SW,216,0.0,0.0,91,0.00,,,0.00,0,Wunderground v.1.15,2013-05-16 07:20:00,
2013-05-16 03:25:00,54.5,51.9,29.97,SW,216,0.0,0.0,91,0.00,,,0.00,0,Wunderground v.1.15,2013-05-16 07:25:00,
2013-05-16 03:30:00,54.4,51.8,29.97,SW,216,0.0,0.0,91,0.00,,,0.00,0,Wunderground v.1.15,2013-05-16 07:30:00,
2013-05-16 03:35:00,54.3,51.7,29.98,SW,216,0.0,0.0,91,0.00,,,0.00,0,Wunderground v.1.15,2013-05-16 07:35:00,
2013-05-16 03:40:00,54.3,51.7,29.98,SW,216,0.0,0.0,91,0.00,,,0.00,0,Wunderground v.1.15,2013-05-16 07:40:00,
2013-05-16 03:45:00,54.3,51.7,29.98,SW,216,0.0,0.0,91,0.00,,,0.00,0,Wunderground v.1.15,2013-05-16 07:45:00,
2013-05-16 03:55:00,54.2,51.6,29.98,SW,216,0.0,0.0,91,0.00,,,0.00,0,Wunderground v.1.15,2013-05-16 07:55:00,
2013-05-16 04:00:00,54.2,51.6,29.98,SW,216,0.0,0.0,91,0.00,,,0.00,0,Wunderground v.1.15,2013-05-16 08:00:00,
2013-05-16 04:05:00,54.2,51.6,29.98,SW,216,0.0,0.0,91,0.00,,,0.00,0,Wunderground v.1.15,2013-05-16 08:05:00,
2013-05-16 04:15:00,54.3,51.7,29.98,SW,216,0.0,0.0,91,0.00,,,0.00,0,Wunderground v.1.15,2013-05-16 08:15:00,
2013-05-16 04:20:00,54.3,51.7,29.98,SW,216,0.0,0.0,91,0.00,,,0.00,0,Wunderground v.1.15,2013-05-16 08:20:00,
2013-05-16 04:30:00,54.4,51.8,29.98,SW,216,0.0,0.0,91,0.00,,,0.00,0,Wunderground v.1.15,2013-05-16 08:30:00,
2013-05-16 04:40:00,54.4,51.8,29.98,SW,216,0.0,0.0,91,0.00,,,0.00,0,Wunderground v.1.15,2013-05-16 08:40:00,
2013-05-16 04:45:00,54.4,51.8,29.98,SW,216,0.0,0.0,91,0.00,,,0.00,0,Wunderground v.1.15,2013-05-16 08:45:00,
2013-05-16 04:50:00,54.4,52.1,29.98,SW,216,0.0,0.0,92,0.00,,,0.00,0,Wunderground v.1.15,2013-05-16 08:50:00,
2013-05-16 04:55:00,54.5,52.2,29.98,SW,216,0.0,0.0,92,0.00,,,0.00,0,Wunderground v.1.15,2013-05-16 08:55:00,
2013-05-16 05:00:00,54.4,51.8,29.98,SW,216,0.0,0.0,91,0.00,,,0.00,0,Wunderground v.1.15,2013-05-16 09:00:00,
2013-05-16 05:10:00,54.3,52.0,29.99,SW,216,0.0,0.0,92,0.00,,,0.00,0,Wunderground v.1.15,2013-05-16 09:10:00,
2013-05-16 05:15:00,54.4,52.1,29.99,SW,216,0.0,0.0,92,0.00,,,0.00,0,Wunderground v.1.15,2013-05-16 09:15:00,
2013-05-16 05:20:00,54.5,52.2,29.99,SW,216,0.0,0.0,92,0.00,,,0.00,0,Wunderground v.1.15,2013-05-16 09:20:00,
2013-05-16 05:25:00,54.5,52.2,29.99,SW,216,0.0,0.0,92,0.00,,,0.00,0,Wunderground v.1.15,2013-05-16 09:25:00,
2013-05-16 05:30:00,54.5,52.2,29.99,SW,216,0.0,0.0,92,0.00,,,0.00,0,Wunderground v.1.15,2013-05-16 09:30:00,
2013-05-16 05:35:00,54.4,52.1,29.99,SW,216,0.0,0.0,92,0.00,,,0.00,0,Wunderground v.1.15,2013-05-16 09:35:00,
2013-05-16 05:45:00,54.4,52.1,29.99,SW,216,0.0,0.0,92,0.00,,,0.00,0,Wunderground v.1.15,2013-05-16 09:45:00,
2013-05-16 05:50:00,54.4,52.1,29.99,SW,216,0.0,0.0,92,0.00,,,0.00,0,Wunderground v.1.15,2013-05-16 09:50:00,
2013-05-16 05:55:00,54.5,52.2,29.99,SW,216,0.0,0.0,92,0.00,,,0.00,0,Wunderground v.1.15,2013-05-16 09:55:00,
2013-05-16 06:00:00,54.5,52.2,29.99,SW,216,0.0,0.0,92,0.00,,,0.00,0,Wunderground v.1.15,2013-05-16 10:00:00,
2013-05-16 06:05:00,54.6,52.3,29.99,SW,216,0.0,0.0,92,0.00,,,0.00,0,Wunderground v.1.15,2013-05-16 10:05:00,
2013-05-16 06:15:00,54.5,52.2,29.99,SW,216,0.0,0.0,92,0.00,,,0.00,0,Wunderground v.1.15,2013-05-16 10:15:00,
2013-05-16 06:20:00,54.5,52.2,29.99,SW,216,0.0,0.0,92,0.00,,,0.00,0,Wunderground v.1.15,2013-05-16 10:20:00,
2013-05-16 06:25:00,54.5,52.2,30.00,SW,216,0.0,0.0,92,0.00,,,0.00,0,Wunderground v.1.15,2013-05-16 10:25:00,
2013-05-16 06:30:00,54.4,52.1,30.00,SW,216,0.0,0.0,92,0.00,,,0.00,0,Wunderground v.1.15,2013-05-16 10:30:00,
2013-05-16 06:35:00,54.4,52.1,30.00,SW,216,0.0,0.0,92,0.00,,,0.00,0,Wunderground v.1.15,2013-05-16 10:35:00,
2013-05-16 06:40:00,54.3,52.0,30.00,SW,216,0.0,0.0,92,0.00,,,0.00,0,Wunderground v.1.15,2013-05-16 10:40:00,
2013-05-16 06:45:00,54.3,52.0,30.00,SW,216,0.0,0.0,92,0.00,,,0.00,0,Wunderground v.1.15,2013-05-16 10:45:00,
2013-05-16 06:55:00,54.3,52.0,30.00,SW,216,0.0,0.0,92,0.00,,,0.00,0,Wunderground v.1.15,2013-05-16 10:55:00,
2013-05-16 07:00:00,54.3,52.0,30.00,SW,216,0.0,0.0,92,0.00,,,0.00,5,Wunderground v.1.15,2013-05-16 11:00:00,
2013-05-16 07:05:00,54.4,52.1,30.00,SW,216,0.0,0.0,92,0.00,,,0.00,7,Wunderground v.1.15,2013-05-16 11:05:00,
2013-05-16 07:15:00,54.4,52.4,30.01,SW,216,0.0,0.0,93,0.00,,,0.00,11,Wunderground v.1.15,2013-05-16 11:15:00,
2013-05-16 07:20:00,54.4,52.1,30.01,SW,216,0.0,0.0,92,0.00,,,0.00,12,Wunderground v.1.15,2013-05-16 11:20:00,
2013-05-16 07:30:00,54.5,52.5,30.01,SW,216,0.0,0.0,93,0.00,,,0.00,14,Wunderground v.1.15,2013-05-16 11:30:00,
2013-05-16 07:35:00,54.6,52.6,30.01,SW,216,0.0,0.0,93,0.00,,,0.00,18,Wunderground v.1.15,2013-05-16 11:35:00,
2013-05-16 07:40:00,54.6,52.6,30.01,SW,216,0.0,0.0,93,0.00,,,0.00,32,Wunderground v.1.15,2013-05-16 11:40:00,
2013-05-16 07:45:00,54.8,52.8,30.01,SW,216,0.0,0.0,93,0.00,,,0.00,26,Wunderground v.1.15,2013-05-16 11:45:00,
2013-05-16 07:50:00,54.9,52.9,30.01,SW,216,0.0,0.0,93,0.00,,,0.00,32,Wunderground v.1.15,2013-05-16 11:50:00,
2013-05-16 07:55:00,55.1,53.1,30.02,SW,216,0.0,0.0,93,0.00,,,0.00,49,Wunderground v.1.15,2013-05-16 11:55:00,
2013-05-16 08:05:00,55.5,53.5,30.02,SW,216,0.0,0.0,93,0.00,,,0.00,49,Wunderground v.1.15,2013-05-16 12:05:00,
2013-05-16 08:15:00,56.0,54.0,30.02,SW,216,0.0,0.0,93,0.00,,,0.00,58,Wunderground v.1.15,2013-05-16 12:15:00,
2013-05-16 08:20:00,56.3,54.3,30.02,SW,216,0.0,0.0,93,0.00,,,0.00,62,Wunderground v.1.15,2013-05-16 12:20:00,
2013-05-16 09:15:00,59.0,56.7,30.03,SW,215,0.0,0.0,92,0.00,,,0.00,84,Wunderground v.1.15,2013-05-16 13:15:00,
2013-05-16 09:25:00,59.7,57.4,30.03,SW,215,0.0,0.0,92,0.00,,,0.00,84,Wunderground v.1.15,2013-05-16 13:25:00,
2013-05-16 09:30:00,60.1,57.8,30.03,SW,215,0.0,0.0,92,0.00,,,0.00,91,Wunderground v.1.15,2013-05-16 13:30:00,
2013-05-16 09:35:00,60.4,57.8,30.03,SW,215,0.0,0.0,91,0.00,,,0.00,100,Wunderground v.1.15,2013-05-16 13:35:00,
2013-05-16 09:40:00,60.6,58.0,30.04,SW,215,0.0,0.0,91,0.00,,,0.00,109,Wunderground v.1.15,2013-05-16 13:40:00,
2013-05-16 09:45:00,60.9,58.3,30.04,SW,215,0.0,0.0,91,0.00,,,0.00,111,Wunderground v.1.15,2013-05-16 13:45:00,
2013-05-16 09:50:00,61.2,58.6,30.03,SW,215,0.0,0.0,91,0.00,,,0.00,114,Wunderground v.1.15,2013-05-16 13:50:00,
2013-05-16 10:00:00,61.7,58.7,30.04,SW,215,0.0,0.0,90,0.00,,,0.00,100,Wunderground v.1.15,2013-05-16 14:00:00,
2013-05-16 10:05:00,61.9,58.6,30.05,SW,214,0.0,0.0,89,0.00,,,0.00,98,Wunderground v.1.15,2013-05-16 14:05:00,
2013-05-16 10:15:00,62.4,58.8,30.04,SW,214,0.0,0.0,88,0.00,,,0.00,81,Wunderground v.1.15,2013-05-16 14:15:00,
2013-05-16 10:20:00,62.5,58.9,30.03,SSW,213,0.0,0.0,88,0.00,,,0.00,91,Wunderground v.1.15,2013-05-16 14:20:00,
2013-05-16 10:25:00,62.6,59.0,30.03,SSW,213,0.0,0.0,88,0.00,,,0.00,98,Wunderground v.1.15,2013-05-16 14:25:00,
2013-05-16 10:35:00,63.0,59.1,30.04,SSW,213,0.0,0.0,87,0.00,,,0.00,120,Wunderground v.1.15,2013-05-16 14:35:00,
2013-05-16 10:40:00,63.2,59.3,30.04,SSW,213,0.0,0.0,87,0.00,,,0.00,105,Wunderground v.1.15,2013-05-16 14:40:00,
2013-05-16 10:45:00,63.4,59.5,30.04,SSW,211,0.0,0.0,87,0.00,,,0.00,98,Wunderground v.1.15,2013-05-16 14:45:00,
2013-05-16 10:50:00,63.6,59.7,30.04,SSW,211,0.0,0.0,87,0.00,,,0.00,83,Wunderground v.1.15,2013-05-16 14:50:00,
2013-05-16 10:55:00,63.7,59.4,30.04,SSW,211,0.0,0.0,86,0.00,,,0.00,93,Wunderground v.1.15,2013-05-16 14:55:00,
2013-05-16 11:00:00,63.8,59.5,30.04,SSW,210,0.0,0.0,86,0.00,,,0.00,98,Wunderground v.1.15,2013-05-16 15:00:00,
2013-05-16 11:05:00,63.9,59.6,30.04,SSW,210,0.0,0.0,86,0.00,,,0.00,120,Wunderground v.1.15,2013-05-16 15:05:00,
2013-05-16 11:15:00,64.1,59.8,30.04,SSW,210,0.0,0.0,86,0.00,,,0.00,109,Wunderground v.1.15,2013-05-16 15:15:00,
2013-05-16 11:20:00,64.2,60.2,30.04,SSW,212,0.0,0.0,87,0.00,,,0.00,88,Wunderground v.1.15,2013-05-16 15:20:00,
2013-05-16 11:25:00,64.4,60.4,30.05,SSW,213,0.0,0.0,87,0.00,,,0.00,95,Wunderground v.1.15,2013-05-16 15:25:00,
2013-05-16 11:30:00,64.6,60.6,30.04,SSW,211,0.0,0.0,87,0.00,,,0.00,132,Wunderground v.1.15,2013-05-16 15:30:00,
2013-05-16 11:35:00,64.9,60.9,30.04,SSW,211,0.0,0.0,87,0.00,,,0.00,114,Wunderground v.1.15,2013-05-16 15:35:00,
2013-05-16 11:40:00,65.1,61.1,30.04,SSW,211,0.0,0.0,87,0.00,,,0.00,155,Wunderground v.1.15,2013-05-16 15:40:00,
2013-05-16 11:50:00,65.7,61.4,30.04,SSW,211,0.0,0.0,86,0.00,,,0.00,130,Wunderground v.1.15,2013-05-16 15:50:00,
2013-05-16 11:55:00,66.0,62.0,30.04,SSW,211,0.0,0.0,87,0.00,,,0.00,190,Wunderground v.1.15,2013-05-16 15:55:00,
2013-05-16 12:00:00,66.5,62.5,30.04,SSW,211,0.0,0.0,87,0.00,,,0.00,165,Wunderground v.1.15,2013-05-16 16:00:00,
2013-05-16 12:05:00,67.0,63.0,30.04,SSW,211,0.0,0.0,87,0.00,,,0.00,248,Wunderground v.1.15,2013-05-16 16:05:00,
2013-05-16 12:15:00,68.5,63.1,30.03,SSW,211,0.0,0.0,83,0.00,,,0.00,747,Wunderground v.1.15,2013-05-16 16:15:00,
2013-05-16 12:25:00,70.9,61.8,30.03,SW,231,0.0,0.0,73,0.00,,,0.00,998,Wunderground v.1.15,2013-05-16 16:25:00,
2013-05-16 12:30:00,71.6,62.1,30.02,SW,231,0.0,0.0,72,0.00,,,0.00,506,Wunderground v.1.15,2013-05-16 16:30:00,
2013-05-16 12:35:00,72.1,60.1,30.02,SW,231,0.0,0.0,66,0.00,,,0.00,538,Wunderground v.1.15,2013-05-16 16:35:00,
2013-05-16 12:40:00,72.4,60.8,30.02,SW,217,0.0,0.0,67,0.00,,,0.00,424,Wunderground v.1.15,2013-05-16 16:40:00,
2013-05-16 12:45:00,73.0,61.8,30.02,SW,217,0.0,0.0,68,0.00,,,0.00,679,Wunderground v.1.15,2013-05-16 16:45:00,
2013-05-16 12:50:00,73.8,62.2,30.02,WSW,242,0.0,0.0,67,0.00,,,0.00,555,Wunderground v.1.15,2013-05-16 16:50:00,
2013-05-16 13:00:00,73.8,62.2,30.02,SSW,208,0.0,0.0,67,0.00,,,0.00,206,Wunderground v.1.15,2013-05-16 17:00:00,
2013-05-16 13:05:00,73.5,61.9,30.01,SW,234,0.0,0.0,67,0.00,,,0.00,251,Wunderground v.1.15,2013-05-16 17:05:00,
2013-05-16 13:15:00,73.4,62.2,30.00,SW,233,0.0,0.0,68,0.00,,,0.00,424,Wunderground v.1.15,2013-05-16 17:15:00,
2013-05-16 13:20:00,73.9,62.7,30.00,SW,233,0.0,0.0,68,0.00,,,0.00,520,Wunderground v.1.15,2013-05-16 17:20:00,
2013-05-16 13:25:00,74.5,62.4,30.00,SW,233,0.0,0.0,66,0.00,,,0.00,545,Wunderground v.1.15,2013-05-16 17:25:00,
2013-05-16 13:35:00,75.0,62.9,30.00,SE,126,1.0,2.0,66,0.00,,,0.00,926,Wunderground v.1.15,2013-05-16 17:35:00,
2013-05-16 13:40:00,75.4,62.8,30.00,NW,312,1.0,1.0,65,0.00,,,0.00,991,Wunderground v.1.15,2013-05-16 17:40:00,
2013-05-16 13:45:00,75.9,61.5,29.99,WSW,244,1.0,1.0,61,0.00,,,0.00,1009,Wunderground v.1.15,2013-05-16 17:45:00,
2013-05-16 13:50:00,76.9,63.8,29.99,WSW,244,0.0,0.0,64,0.00,,,0.00,1000,Wunderground v.1.15,2013-05-16 17:50:00,
2013-05-16 13:55:00,77.3,62.3,29.99,South,180,0.0,0.0,60,0.00,,,0.00,1002,Wunderground v.1.15,2013-05-16 17:55:00,
2013-05-16 14:00:00,77.5,63.0,29.99,South,180,0.0,0.0,61,0.00,,,0.00,1086,Wunderground v.1.15,2013-05-16 18:00:00,
2013-05-16 14:05:00,77.7,62.7,29.99,South,182,0.0,0.0,60,0.00,,,0.00,891,Wunderground v.1.15,2013-05-16 18:05:00,
2013-05-16 14:15:00,77.9,63.4,29.98,SE,128,1.0,1.0,61,0.00,,,0.00,1055,Wunderground v.1.15,2013-05-16 18:15:00,
2013-05-16 14:20:00,78.4,62.4,29.98,SSE,158,0.0,2.0,58,0.00,,,0.00,990,Wunderground v.1.15,2013-05-16 18:20:00,
2013-05-16 14:25:00,79.0,63.4,29.98,North,9,0.0,2.0,59,0.00,,,0.00,998,Wunderground v.1.15,2013-05-16 18:25:00,
2013-05-16 14:30:00,79.3,62.2,29.98,SW,223,1.0,1.0,56,0.00,,,0.00,935,Wunderground v.1.15,2013-05-16 18:30:00,
2013-05-16 14:35:00,79.5,63.4,29.98,SSE,156,1.0,1.0,58,0.00,,,0.00,942,Wunderground v.1.15,2013-05-16 18:35:00,
2013-05-16 14:40:00,79.7,64.1,29.97,South,182,1.0,1.0,59,0.00,,,0.00,960,Wunderground v.1.15,2013-05-16 18:40:00,
2013-05-16 14:45:00,79.8,63.2,29.97,South,178,1.0,1.0,57,0.00,,,0.00,960,Wunderground v.1.15,2013-05-16 18:45:00,
2013-05-16 14:50:00,79.8,62.2,29.97,SW,220,1.0,1.0,55,0.00,,,0.00,925,Wunderground v.1.15,2013-05-16 18:50:00,
2013-05-16 15:00:00,80.6,64.0,29.97,West,265,1.0,1.0,57,0.00,,,0.00,914,Wunderground v.1.15,2013-05-16 19:00:00,
2013-05-16 15:05:00,81.0,62.8,29.97,SW,220,1.0,3.0,54,0.00,,,0.00,914,Wunderground v.1.15,2013-05-16 19:05:00,
2013-05-16 15:15:00,81.2,63.0,29.97,WSW,238,1.0,1.0,54,0.00,,,0.00,898,Wunderground v.1.15,2013-05-16 19:15:00,
2013-05-16 15:20:00,81.5,62.7,29.97,ENE,57,0.0,0.0,53,0.00,,,0.00,877,Wunderground v.1.15,2013-05-16 19:20:00,
2013-05-16 15:25:00,81.7,64.0,29.97,WNW,300,0.0,0.0,55,0.00,,,0.00,874,Wunderground v.1.15,2013-05-16 19:25:00,
2013-05-16 15:35:00,81.7,63.4,29.97,WSW,254,0.0,1.0,54,0.00,,,0.00,847,Wunderground v.1.15,2013-05-16 19:35:00,
2013-05-16 15:40:00,81.2,64.5,29.97,SSW,193,0.0,1.0,57,0.00,,,0.00,824,Wunderground v.1.15,2013-05-16 19:40:00,
2013-05-16 15:45:00,81.2,63.0,29.97,WSW,239,1.0,1.0,54,0.00,,,0.00,816,Wunderground v.1.15,2013-05-16 19:45:00,
2013-05-16 15:50:00,80.6,62.4,29.97,South,169,1.0,1.0,54,0.00,,,0.00,782,Wunderground v.1.15,2013-05-16 19:50:00,
2013-05-16 15:55:00,80.6,64.0,29.97,SW,223,1.0,1.0,57,0.00,,,0.00,784,Wunderground v.1.15,2013-05-16 19:55:00,
2013-05-16 16:00:00,80.3,63.7,29.97,SSW,210,0.0,2.0,57,0.00,,,0.00,784,Wunderground v.1.15,2013-05-16 20:00:00,
2013-05-16 16:05:00,79.6,62.5,29.96,WNW,292,0.0,2.0,56,0.00,,,0.00,127,Wunderground v.1.15,2013-05-16 20:05:00,
2013-05-16 16:15:00,78.3,62.3,29.96,WSW,239,0.0,1.0,58,0.00,,,0.00,155,Wunderground v.1.15,2013-05-16 20:15:00,
2013-05-16 16:20:00,78.0,61.5,29.96,SW,235,0.0,0.0,57,0.00,,,0.00,95,Wunderground v.1.15,2013-05-16 20:20:00,
2013-05-16 16:25:00,77.5,61.1,29.96,SW,235,0.0,0.0,57,0.00,,,0.00,744,Wunderground v.1.15,2013-05-16 20:25:00,
2013-05-16 16:30:00,77.6,60.7,29.96,West,267,0.0,0.0,56,0.00,,,0.00,91,Wunderground v.1.15,2013-05-16 20:30:00,
2013-05-16 16:35:00,77.5,60.6,29.96,WSW,250,0.0,0.0,56,0.00,,,0.00,130,Wunderground v.1.15,2013-05-16 20:35:00,
2013-05-16 16:40:00,77.6,61.2,29.96,SSE,159,0.0,2.0,57,0.00,,,0.00,109,Wunderground v.1.15,2013-05-16 20:40:00,
2013-05-16 16:50:00,77.6,61.2,29.95,SSW,202,0.0,2.0,57,0.00,,,0.00,84,Wunderground v.1.15,2013-05-16 20:50:00,
2013-05-16 16:55:00,77.3,60.9,29.95,SW,235,0.0,2.0,57,0.00,,,0.00,107,Wunderground v.1.15,2013-05-16 20:55:00,
2013-05-16 17:00:00,77.4,61.0,29.95,West,265,0.0,0.0,57,0.00,,,0.00,105,Wunderground v.1.15,2013-05-16 21:00:00,
2013-05-16 17:05:00,77.5,61.1,29.95,SW,231,0.0,0.0,57,0.00,,,0.00,97,Wunderground v.1.15,2013-05-16 21:05:00,
2013-05-16 17:15:00,77.6,60.2,29.95,SW,220,0.0,0.0,55,0.00,,,0.00,118,Wunderground v.1.15,2013-05-16 21:15:00,
2013-05-16 17:25:00,77.8,60.3,29.96,SW,234,0.0,0.0,55,0.00,,,0.00,88,Wunderground v.1.15,2013-05-16 21:25:00,
2013-05-16 17:30:00,77.7,60.2,29.95,SW,228,0.0,0.0,55,0.00,,,0.00,76,Wunderground v.1.15,2013-05-16 21:30:00,
2013-05-16 17:35:00,77.5,60.1,29.96,SSE,167,1.0,1.0,55,0.00,,,0.00,72,Wunderground v.1.15,2013-05-16 21:35:00,
2013-05-16 17:40:00,77.3,59.4,29.96,South,171,0.0,0.0,54,0.00,,,0.00,51,Wunderground v.1.15,2013-05-16 21:40:00,
2013-05-16 17:45:00,77.0,60.1,29.95,SW,224,0.0,0.0,56,0.00,,,0.00,90,Wunderground v.1.15,2013-05-16 21:45:00,
2013-05-16 17:50:00,76.7,59.8,29.96,WNW,290,0.0,4.0,56,0.00,,,0.00,72,Wunderground v.1.15,2013-05-16 21:50:00,
2013-05-16 17:55:00,76.6,60.7,29.96,WSW,250,0.0,4.0,58,0.00,,,0.00,63,Wunderground v.1.15,2013-05-16 21:55:00,
2013-05-16 18:05:00,76.1,60.7,29.96,WSW,245,0.0,0.0,59,0.00,,,0.00,77,Wunderground v.1.15,2013-05-16 22:05:00,
2013-05-16 18:15:00,75.8,61.4,29.95,WSW,248,0.0,0.0,61,0.00,,,0.00,54,Wunderground v.1.15,2013-05-16 22:15:00,
2013-05-16 18:20:00,75.6,60.7,29.95,WSW,247,0.0,0.0,60,0.00,,,0.00,95,Wunderground v.1.15,2013-05-16 22:20:00,
2013-05-16 18:25:00,75.4,61.9,29.95,WSW,241,0.0,0.0,63,0.00,,,0.00,86,Wunderground v.1.15,2013-05-16 22:25:00,
2013-05-16 18:30:00,75.3,61.4,29.95,NW,311,0.0,0.0,62,0.00,,,0.00,46,Wunderground v.1.15,2013-05-16 22:30:00,
2013-05-16 18:40:00,75.0,61.1,29.95,SW,221,0.0,0.0,62,0.00,,,0.00,70,Wunderground v.1.15,2013-05-16 22:40:00,
2013-05-16 18:45:00,74.9,61.5,29.95,SW,221,0.0,0.0,63,0.00,,,0.00,54,Wunderground v.1.15,2013-05-16 22:45:00,
2013-05-16 18:50:00,74.9,61.9,29.95,SW,221,0.0,0.0,64,0.00,,,0.00,33,Wunderground v.1.15,2013-05-16 22:50:00,
2013-05-16 18:55:00,74.7,61.7,29.95,SW,221,0.0,0.0,64,0.00,,,0.00,26,Wunderground v.1.15,2013-05-16 22:55:00,
2013-05-16 19:00:00,74.5,61.5,29.95,SW,221,0.0,0.0,64,0.00,,,0.00,25,Wunderground v.1.15,2013-05-16 23:00:00,
2013-05-16 19:05:00,74.2,61.7,29.95,SW,221,0.0,0.0,65,0.00,,,0.00,35,Wunderground v.1.15,2013-05-16 23:05:00,
2013-05-16 19:15:00,73.9,61.8,29.95,SW,221,0.0,0.0,66,0.00,,,0.00,30,Wunderground v.1.15,2013-05-16 23:15:00,
2013-05-16 19:20:00,73.7,60.8,29.95,SW,221,0.0,0.0,64,0.00,,,0.00,32,Wunderground v.1.15,2013-05-16 23:20:00,
2013-05-16 19:25:00,73.5,61.0,29.95,SW,221,0.0,0.0,65,0.00,,,0.00,35,Wunderground v.1.15,2013-05-16 23:25:00,
2013-05-16 19:30:00,73.4,61.3,29.95,SW,219,0.0,0.0,66,0.00,,,0.00,35,Wunderground v.1.15,2013-05-16 23:30:00,
2013-05-16 19:35:00,73.3,61.3,29.95,SW,219,0.0,0.0,66,0.00,,,0.00,37,Wunderground v.1.15,2013-05-16 23:35:00,
2013-05-16 19:40:00,73.3,61.3,29.95,SW,219,0.0,0.0,66,0.00,,,0.00,25,Wunderground v.1.15,2013-05-16 23:40:00,
2013-05-16 19:50:00,73.1,61.5,29.95,SW,219,0.0,0.0,67,0.00,,,0.00,18,Wunderground v.1.15,2013-05-16 23:50:00,
2013-05-16 19:55:00,73.0,61.4,29.95,SW,219,0.0,0.0,67,0.00,,,0.00,18,Wunderground v.1.15,2013-05-16 23:55:00,
2013-05-16 20:00:00,72.8,61.2,29.95,SW,219,0.0,0.0,67,0.00,,,0.00,16,Wunderground v.1.15,2013-05-17 00:00:00,
2013-05-16 20:05:00,72.6,61.4,29.95,SW,219,0.0,0.0,68,0.00,,,0.00,16,Wunderground v.1.15,2013-05-17 00:05:00,
2013-05-16 20:15:00,72.0,61.3,29.95,SW,219,0.0,0.0,69,0.00,,,0.00,9,Wunderground v.1.15,2013-05-17 00:15:00,
2013-05-16 20:25:00,71.3,61.4,29.96,SW,219,0.0,0.0,71,0.00,,,0.00,0,Wunderground v.1.15,2013-05-17 00:25:00,
2013-05-16 20:30:00,71.1,61.2,29.96,SW,219,0.0,0.0,71,0.00,,,0.00,0,Wunderground v.1.15,2013-05-17 00:30:00,
2013-05-16 20:35:00,70.9,61.0,29.96,SW,219,0.0,0.0,71,0.00,,,0.00,0,Wunderground v.1.15,2013-05-17 00:35:00,
2013-05-16 20:40:00,70.7,61.6,29.96,SW,219,0.0,0.0,73,0.00,,,0.00,0,Wunderground v.1.15,2013-05-17 00:40:00,
2013-05-16 20:45:00,70.5,61.8,29.96,SW,219,0.0,0.0,74,0.00,,,0.00,0,Wunderground v.1.15,2013-05-17 00:45:00,
2013-05-16 20:50:00,70.3,61.6,29.96,SW,219,0.0,0.0,74,0.00,,,0.00,0,Wunderground v.1.15,2013-05-17 00:50:00,
2013-05-16 21:00:00,69.2,61.3,29.97,SW,219,0.0,0.0,76,0.00,,,0.00,0,Wunderground v.1.15,2013-05-17 01:00:00,
2013-05-16 21:05:00,68.9,61.8,29.97,SW,219,0.0,0.0,78,0.00,,,0.00,0,Wunderground v.1.15,2013-05-17 01:05:00,
2013-05-16 21:15:00,68.1,61.3,29.97,SW,219,0.0,0.0,79,0.00,,,0.00,0,Wunderground v.1.15,2013-05-17 01:15:00,
2013-05-16 21:20:00,67.8,61.8,29.97,SW,219,0.0,0.0,81,0.00,,,0.00,0,Wunderground v.1.15,2013-05-17 01:20:00,
2013-05-16 21:25:00,67.5,61.1,29.97,SW,219,0.0,0.0,80,0.00,,,0.00,0,Wunderground v.1.15,2013-05-17 01:25:00,
2013-05-16 21:35:00,66.9,60.9,29.97,SW,219,0.0,0.0,81,0.00,,,0.00,0,Wunderground v.1.15,2013-05-17 01:35:00,
2013-05-16 21:40:00,66.6,60.6,29.98,SW,219,0.0,0.0,81,0.00,,,0.00,0,Wunderground v.1.15,2013-05-17 01:40:00,
2013-05-16 21:45:00,66.3,61.0,29.98,SW,219,0.0,0.0,83,0.00,,,0.00,0,Wunderground v.1.15,2013-05-17 01:45:00,
2013-05-16 21:50:00,65.9,60.6,29.98,SW,219,0.0,0.0,83,0.00,,,0.00,0,Wunderground v.1.15,2013-05-17 01:50:00,
2013-05-16 21:55:00,65.7,60.7,29.98,SW,219,0.0,0.0,84,0.00,,,0.00,0,Wunderground v.1.15,2013-05-17 01:55:00,
2013-05-16 22:00:00,65.4,60.8,29.98,SW,219,0.0,0.0,85,0.00,,,0.00,0,Wunderground v.1.15,2013-05-17 02:00:00,
2013-05-16 22:10:00,65.0,60.4,29.99,SW,219,0.0,0.0,85,0.00,,,0.00,0,Wunderground v.1.15,2013-05-17 02:10:00,
2013-05-16 22:15:00,64.9,60.3,29.99,SW,219,0.0,0.0,85,0.00,,,0.00,0,Wunderground v.1.15,2013-05-17 02:15:00,
2013-05-16 22:20:00,64.8,60.5,29.99,SW,219,0.0,0.0,86,0.00,,,0.00,0,Wunderground v.1.15,2013-05-17 02:20:00,
2013-05-16 22:25:00,64.7,60.4,29.99,SW,219,0.0,0.0,86,0.00,,,0.00,0,Wunderground v.1.15,2013-05-17 02:25:00,
2013-05-16 22:30:00,64.6,60.3,29.99,SW,219,0.0,0.0,86,0.00,,,0.00,0,Wunderground v.1.15,2013-05-17 02:30:00,
2013-05-16 22:40:00,64.3,60.0,29.99,SW,219,0.0,0.0,86,0.00,,,0.00,0,Wunderground v.1.15,2013-05-17 02:40:00,
2013-05-16 22:45:00,64.1,60.2,29.99,SW,219,0.0,0.0,87,0.00,,,0.00,0,Wunderground v.1.15,2013-05-17 02:45:00,
2013-05-16 22:50:00,63.9,60.0,29.99,SW,219,0.0,0.0,87,0.00,,,0.00,0,Wunderground v.1.15,2013-05-17 02:50:00,
2013-05-16 22:55:00,63.7,59.8,30.00,SW,219,0.0,0.0,87,0.00,,,0.00,0,Wunderground v.1.15,2013-05-17 02:55:00,
2013-05-16 23:00:00,63.6,59.7,30.00,SW,219,0.0,0.0,87,0.00,,,0.00,0,Wunderground v.1.15,2013-05-17 03:00:00,
2013-05-16 23:05:00,63.4,59.5,30.00,SW,219,0.0,0.0,87,0.00,,,0.00,0,Wunderground v.1.15,2013-05-17 03:05:00,
2013-05-16 23:15:00,63.1,59.5,30.00,SW,219,0.0,0.0,88,0.00,,,0.00,0,Wunderground v.1.15,2013-05-17 03:15:00,
2013-05-16 23:20:00,63.1,59.5,30.00,SW,219,0.0,0.0,88,0.00,,,0.00,0,Wunderground v.1.15,2013-05-17 03:20:00,
2013-05-16 23:25:00,63.0,59.7,30.00,SW,219,0.0,0.0,89,0.00,,,0.00,0,Wunderground v.1.15,2013-05-17 03:25:00,
2013-05-16 23:30:00,62.9,59.3,30.00,SW,219,0.0,0.0,88,0.00,,,0.00,0,Wunderground v.1.15,2013-05-17 03:30:00,
2013-05-16 23:35:00,62.8,59.2,30.00,SW,219,0.0,0.0,88,0.00,,,0.00,0,Wunderground v.1.15,2013-05-17 03:35:00,
2013-05-16 23:40:00,62.7,59.4,30.00,SW,219,0.0,0.0,89,0.00,,,0.00,0,Wunderground v.1.15,2013-05-17 03:40:00,
2013-05-16 23:50:00,62.6,59.3,30.00,SW,219,0.0,0.0,89,0.00,,,0.00,0,Wunderground v.1.15,2013-05-17 03:50:00,
2013-05-16 23:55:00,62.5,59.2,30.00,SW,219,0.0,0.0,89,0.00,,,0.00,0,Wunderground v.1.15,2013-05-17 03:55:00,